Terminal Aerodrome Forecast
Issued by NWS

Home | Current Version | Previous Version | Graphics & Text | Print | Product List | Glossary On
Versions: 1 2 3 4 5 6 7 8 9 10 11 12 13 14 15 16 17 18
000
FTUS43 KABR 301725 AAB
TAFPIR
TAF AMD
KPIR 301725Z 3017/3118 16017KT P6SM SCT250
     FM302300 17018KT P6SM VCTS BKN090CB
      TEMPO 3100/3104 -TSRA BKN040CB
     FM310500 31010KT P6SM SCT250
     FM311600 28016KT P6SM SCT250=

USA.gov is the U.S. government's official web portal to all federal, state and local government web resources and services.